createdAt,value
2022-11-15T00:01:42.364Z,43.50
2022-11-15T00:04:13.894Z,43.50
2022-11-15T00:06:44.762Z,43.60
2022-11-15T00:09:15.641Z,43.60
2022-11-15T00:11:50.591Z,43.80
2022-11-15T00:14:23.756Z,43.80
2022-11-15T00:16:57.336Z,45.30
2022-11-15T00:19:28.187Z,45.80
2022-11-15T00:21:59.093Z,45.40
2022-11-15T00:24:30.125Z,45.80
2022-11-15T00:27:01.203Z,46.80
2022-11-15T00:29:34.191Z,46.40
2022-11-15T00:32:08.260Z,47.30
2022-11-15T00:34:40.301Z,49.00
2022-11-15T00:37:11.150Z,48.90
2022-11-15T00:39:42.458Z,50.60
2022-11-15T00:42:17.235Z,52.50
2022-11-15T00:44:49.378Z,51.80
2022-11-15T00:47:27.150Z,51.60
2022-11-15T00:49:57.982Z,50.80
2022-11-15T00:52:28.742Z,50.50
2022-11-15T00:54:59.472Z,51.00
2022-11-15T00:57:39.543Z,50.80
2022-11-15T01:00:16.236Z,51.00
2022-11-15T01:02:49.873Z,50.80
2022-11-15T01:05:20.813Z,49.80
2022-11-15T01:07:54.651Z,50.10
2022-11-15T01:10:27.211Z,49.30
2022-11-15T01:12:58.147Z,48.60
2022-11-15T01:15:30.356Z,48.70
2022-11-15T01:18:03.935Z,47.80
2022-11-15T01:20:35.142Z,47.10
2022-11-15T01:23:05.913Z,46.90
2022-11-15T01:25:38.703Z,47.70
2022-11-15T01:28:11.910Z,47.00
2022-11-15T01:30:42.794Z,47.60
2022-11-15T01:33:16.085Z,47.80
2022-11-15T01:35:46.938Z,47.50
2022-11-15T01:38:17.641Z,46.70
2022-11-15T01:40:48.694Z,46.70
2022-11-15T01:43:28.398Z,46.30
2022-11-15T01:46:03.216Z,44.90
2022-11-15T01:48:38.433Z,44.80
2022-11-15T01:51:13.192Z,44.90
2022-11-15T01:53:48.067Z,45.00
2022-11-15T01:56:24.020Z,44.90
2022-11-15T01:58:56.828Z,44.50
2022-11-15T02:01:29.331Z,44.80
2022-11-15T02:04:06.124Z,44.10
2022-11-15T02:06:40.595Z,43.60
2022-11-15T02:09:11.408Z,43.20
2022-11-15T02:15:19.191Z,42.80
2022-11-15T02:18:06.225Z,42.40
2022-11-15T02:21:11.328Z,42.00
2022-11-15T02:24:12.220Z,41.50
2022-11-15T02:27:12.307Z,41.70
2022-11-15T02:30:06.715Z,41.40
2022-11-15T02:32:48.486Z,41.40
2022-11-15T02:35:28.054Z,41.60
2022-11-15T02:38:02.168Z,42.10
2022-11-15T02:40:41.673Z,41.30
2022-11-15T02:43:27.210Z,40.70
2022-11-15T02:46:03.931Z,41.20
2022-11-15T02:48:37.805Z,41.40
2022-11-15T02:51:10.048Z,42.10
2022-11-15T02:53:41.850Z,41.80
2022-11-15T02:56:15.081Z,41.10
2022-11-15T02:59:13.998Z,41.10
2022-11-15T03:01:59.797Z,41.40
2022-11-15T03:04:42.997Z,42.00
2022-11-15T03:07:20.652Z,41.90
2022-11-15T03:10:00.729Z,42.10
2022-11-15T03:12:38.785Z,41.90
2022-11-15T03:15:14.760Z,41.80
2022-11-15T03:17:51.289Z,42.20
2022-11-15T03:20:24.683Z,42.60
2022-11-15T03:22:58.198Z,42.60
2022-11-15T03:25:31.893Z,42.10
2022-11-15T03:28:07.767Z,42.10
2022-11-15T03:30:41.166Z,42.50
2022-11-15T03:33:14.389Z,42.20
2022-11-15T03:35:49.729Z,42.30
2022-11-15T03:38:25.842Z,42.20
2022-11-15T03:41:03.474Z,42.10
2022-11-15T03:43:39.822Z,42.60
2022-11-15T03:46:15.198Z,43.10
2022-11-15T03:48:50.657Z,42.70
2022-11-15T03:51:24.360Z,42.90
2022-11-15T03:53:55.598Z,42.70
2022-11-15T03:56:29.404Z,42.80
2022-11-15T03:59:01.490Z,43.50
2022-11-15T04:01:32.373Z,42.80
2022-11-15T04:04:03.368Z,42.60
2022-11-15T04:06:36.767Z,42.40
2022-11-15T04:09:08.027Z,42.10
2022-11-15T04:11:38.885Z,42.30
2022-11-15T04:14:09.666Z,42.50
2022-11-15T04:16:44.146Z,42.50
2022-11-15T04:19:27.517Z,42.20
2022-11-15T04:22:13.365Z,42.30
2022-11-15T04:24:44.096Z,42.10
2022-11-15T04:27:14.898Z,42.50
2022-11-15T04:29:45.715Z,42.70
2022-11-15T04:32:16.463Z,42.80
2022-11-15T04:34:47.294Z,43.30
2022-11-15T04:37:22.291Z,42.50
2022-11-15T04:39:53.082Z,42.30
2022-11-15T04:42:24.672Z,42.20
2022-11-15T04:45:01.507Z,42.50
2022-11-15T04:47:32.275Z,42.70
2022-11-15T04:50:03.109Z,43.00
2022-11-15T04:52:43.055Z,43.00
2022-11-15T04:55:14.420Z,43.20
2022-11-15T04:57:47.535Z,42.80
2022-11-15T05:00:20.983Z,43.00
2022-11-15T05:03:06.796Z,42.80
2022-11-15T05:05:37.486Z,43.00
2022-11-15T05:08:10.893Z,42.80
2022-11-15T05:10:41.603Z,42.70
2022-11-15T05:13:12.362Z,42.80
2022-11-15T05:15:43.105Z,43.20
2022-11-15T05:18:15.575Z,42.90
2022-11-15T05:20:49.028Z,43.60
2022-11-15T05:23:22.420Z,42.60
2022-11-15T05:25:53.086Z,42.30
2022-11-15T05:28:24.253Z,42.90
2022-11-15T05:30:55.410Z,42.70
2022-11-15T05:33:27.092Z,43.00
2022-11-15T05:36:04.087Z,43.10
2022-11-15T05:38:40.121Z,42.90
2022-11-15T05:41:11.141Z,42.80
2022-11-15T05:43:42.838Z,43.10
2022-11-15T05:46:17.415Z,42.50
2022-11-15T05:48:54.383Z,42.50
2022-11-15T05:51:26.397Z,43.00
2022-11-15T05:54:01.790Z,43.20
2022-11-15T05:56:33.540Z,43.00
2022-11-15T05:59:04.746Z,43.20
2022-11-15T06:01:37.398Z,42.50
2022-11-15T06:04:08.383Z,42.60
2022-11-15T06:06:40.731Z,42.90
2022-11-15T06:09:14.112Z,43.00
2022-11-15T06:11:44.864Z,43.40
2022-11-15T06:14:15.637Z,43.40
2022-11-15T06:16:48.242Z,43.20
2022-11-15T06:19:19.338Z,43.90
2022-11-15T06:21:50.160Z,44.10
2022-11-15T06:24:23.680Z,45.30
2022-11-15T06:26:56.656Z,44.60
2022-11-15T06:29:27.476Z,44.60
2022-11-15T06:31:58.234Z,44.50
2022-11-15T06:34:28.999Z,44.00
2022-11-15T06:37:00.996Z,43.40
2022-11-15T06:39:34.287Z,42.40
2022-11-15T06:42:05.156Z,42.50
2022-11-15T06:44:36.056Z,42.60
2022-11-15T06:47:11.897Z,42.00
2022-11-15T06:49:43.054Z,41.40
2022-11-15T06:52:13.820Z,41.50
2022-11-15T06:54:47.699Z,41.20
2022-11-15T06:57:18.521Z,40.40
2022-11-15T06:59:49.424Z,40.10
2022-11-15T07:02:21.860Z,39.90
2022-11-15T07:04:52.630Z,40.10
2022-11-15T07:07:23.427Z,40.30
2022-11-15T07:09:59.296Z,39.30
2022-11-15T07:12:31.247Z,37.90
2022-11-15T07:15:05.083Z,37.30
2022-11-15T07:17:39.299Z,36.90
2022-11-15T07:20:11.131Z,35.60
2022-11-15T07:22:42.511Z,35.00
2022-11-15T07:25:15.828Z,35.00
2022-11-15T07:27:46.788Z,33.40
2022-11-15T07:30:17.883Z,32.80
2022-11-15T07:32:48.661Z,32.40
2022-11-15T07:35:19.566Z,31.30
2022-11-15T07:38:01.162Z,31.20
2022-11-15T07:40:36.745Z,31.30
2022-11-15T07:43:10.241Z,30.70
2022-11-15T07:45:45.342Z,30.20
2022-11-15T07:48:16.470Z,30.40
2022-11-15T07:50:47.429Z,30.00
2022-11-15T07:53:18.307Z,30.00
2022-11-15T07:55:54.094Z,29.80
2022-11-15T07:58:25.135Z,30.00
2022-11-15T08:00:55.944Z,29.70
2022-11-15T08:03:27.010Z,29.70
2022-11-15T08:05:57.843Z,29.90
2022-11-15T08:08:29.014Z,29.90
2022-11-15T08:11:04.353Z,29.90
2022-11-15T08:13:36.871Z,29.40
2022-11-15T08:16:09.148Z,28.90
2022-11-15T08:18:40.479Z,28.10
2022-11-15T08:21:18.617Z,28.20
2022-11-15T08:23:49.898Z,28.10
2022-11-15T08:26:23.848Z,28.30
2022-11-15T08:28:57.381Z,26.60
2022-11-15T08:31:28.352Z,26.30
2022-11-15T08:33:59.745Z,25.60
2022-11-15T08:36:39.462Z,25.50
2022-11-15T08:39:15.237Z,24.10
2022-11-15T08:41:48.647Z,24.40
2022-11-15T08:44:19.410Z,23.80
2022-11-15T08:46:50.530Z,23.80
2022-11-15T08:49:26.826Z,22.50
2022-11-15T08:51:57.720Z,22.70
2022-11-15T08:54:28.989Z,21.60
2022-11-15T08:57:04.963Z,21.20
2022-11-15T08:59:35.831Z,21.00
2022-11-15T09:02:07.133Z,20.50
2022-11-15T09:04:38.075Z,20.80
2022-11-15T09:07:09.215Z,20.10
2022-11-15T09:09:41.927Z,20.30
2022-11-15T09:12:15.271Z,19.60
2022-11-15T09:14:46.012Z,19.60
2022-11-15T09:17:21.674Z,20.10
2022-11-15T09:19:55.159Z,19.50
2022-11-15T09:22:26.482Z,19.20
2022-11-15T09:24:57.266Z,18.80
2022-11-15T09:27:33.098Z,18.60
2022-11-15T09:30:03.965Z,17.40
2022-11-15T09:32:39.055Z,18.20
2022-11-15T09:35:12.951Z,18.00
2022-11-15T09:37:44.793Z,18.20
2022-11-15T09:40:17.866Z,17.30
2022-11-15T09:43:22.787Z,17.00
2022-11-15T09:46:05.077Z,17.10
2022-11-15T09:48:53.946Z,17.10
2022-11-15T09:51:33.814Z,16.90
2022-11-15T09:57:16.609Z,15.40
2022-11-15T10:03:12.749Z,14.30
2022-11-15T10:05:47.483Z,14.30
2022-11-15T10:08:36.747Z,13.30
2022-11-15T10:14:06.130Z,11.20
2022-11-15T10:17:07.511Z,12.30
2022-11-15T10:19:44.981Z,11.70
2022-11-15T10:22:28.419Z,11.10
2022-11-15T10:25:19.409Z,11.90
2022-11-15T10:27:57.613Z,11.60
2022-11-15T10:30:37.285Z,11.60
2022-11-15T10:33:37.443Z,10.60
2022-11-15T10:36:26.725Z,9.90
2022-11-15T10:39:00.685Z,10.60
2022-11-15T10:41:40.858Z,8.50
2022-11-15T10:44:26.968Z,7.40
2022-11-15T10:47:26.666Z,7.70
2022-11-15T10:50:11.276Z,7.70
2022-11-15T10:52:49.563Z,6.40
2022-11-15T10:55:28.671Z,7.10
2022-11-15T10:58:05.771Z,6.90
2022-11-15T11:00:40.218Z,6.00
2022-11-15T11:03:32.962Z,4.80
2022-11-15T11:06:29.172Z,6.70
2022-11-15T11:09:02.228Z,5.00
2022-11-15T11:11:52.218Z,4.20
2022-11-15T11:14:28.186Z,4.10
2022-11-15T11:17:07.634Z,5.10
2022-11-15T11:19:59.293Z,3.40
2022-11-15T11:22:41.941Z,4.60
2022-11-15T11:25:25.396Z,3.70
2022-11-15T11:28:21.083Z,4.30
2022-11-15T11:31:03.429Z,3.30
2022-11-15T11:33:37.307Z,3.20
2022-11-15T11:36:18.178Z,2.70
2022-11-15T11:39:01.791Z,1.90
2022-11-15T11:41:46.908Z,1.50
2022-11-15T11:44:34.301Z,1.00
2022-11-15T11:47:10.972Z,1.00
2022-11-15T11:49:49.744Z,1.00
2022-11-15T11:52:24.943Z,1.00
2022-11-15T11:55:07.902Z,1.00
2022-11-15T11:57:47.510Z,1.00
2022-11-15T12:00:23.414Z,1.00
2022-11-15T12:03:09.162Z,1.00
2022-11-15T12:05:43.713Z,1.00
2022-11-15T12:08:31.932Z,1.00
2022-11-15T12:11:13.290Z,1.00
2022-11-15T12:13:45.867Z,1.00
2022-11-15T12:16:21.566Z,1.00
2022-11-15T12:18:56.710Z,1.00
2022-11-15T12:21:38.398Z,1.00
2022-11-15T12:24:15.326Z,1.00
2022-11-15T12:26:54.918Z,1.00
2022-11-15T12:29:32.502Z,1.00
2022-11-15T12:32:04.784Z,1.00
2022-11-15T12:34:48.677Z,1.00
2022-11-15T12:37:52.710Z,1.00
2022-11-15T12:40:27.430Z,1.00
2022-11-15T12:43:30.955Z,1.00
2022-11-15T12:46:07.334Z,1.00
2022-11-15T12:48:59.095Z,1.00
2022-11-15T12:52:11.286Z,1.00
2022-11-15T12:54:56.405Z,1.00
2022-11-15T12:57:40.421Z,1.00
2022-11-15T13:00:48.685Z,1.00
2022-11-15T13:03:35.797Z,1.00
2022-11-15T13:06:10.904Z,1.00
2022-11-15T13:08:48.668Z,1.00
2022-11-15T13:11:50.923Z,1.00
2022-11-15T13:14:50.656Z,1.00
2022-11-15T13:17:41.252Z,1.00
2022-11-15T13:20:36.030Z,1.00
2022-11-15T13:23:14.829Z,1.00
2022-11-15T13:26:01.692Z,1.00
2022-11-15T13:28:37.111Z,1.00
2022-11-15T13:31:24.574Z,1.00
2022-11-15T13:33:56.586Z,1.00
2022-11-15T13:36:34.001Z,1.00
2022-11-15T13:39:08.775Z,1.00
2022-11-15T13:41:48.583Z,1.00
2022-11-15T13:44:28.147Z,1.00
2022-11-15T13:47:06.902Z,1.00
2022-11-15T13:49:38.771Z,1.00
2022-11-15T13:52:18.067Z,1.00
2022-11-15T13:54:55.225Z,1.00
2022-11-15T13:57:28.810Z,1.00
2022-11-15T14:00:03.639Z,1.00
2022-11-15T14:02:36.902Z,1.00
2022-11-15T14:05:20.036Z,1.00
2022-11-15T14:08:01.684Z,1.00
2022-11-15T14:10:34.941Z,1.00
2022-11-15T14:13:09.052Z,1.00
2022-11-15T14:15:42.204Z,1.00
2022-11-15T14:18:48.665Z,1.00
2022-11-15T14:21:22.299Z,1.00
2022-11-15T14:23:53.177Z,1.00
2022-11-15T14:26:32.577Z,1.00
2022-11-15T14:29:27.701Z,1.00
2022-11-15T14:32:18.126Z,1.00
2022-11-15T14:34:51.966Z,1.00
2022-11-15T14:37:27.251Z,1.00
2022-11-15T14:40:00.589Z,1.00
2022-11-15T14:42:31.948Z,1.00
2022-11-15T14:45:05.076Z,1.00
2022-11-15T14:47:36.957Z,1.00
2022-11-15T14:50:14.353Z,1.00
2022-11-15T14:52:45.644Z,1.00
2022-11-15T14:55:22.694Z,1.00
2022-11-15T14:57:53.872Z,1.00
2022-11-15T15:00:25.347Z,1.00
2022-11-15T15:02:57.729Z,1.00
2022-11-15T15:05:35.941Z,1.60
2022-11-15T15:08:07.660Z,1.00
2022-11-15T15:10:41.714Z,1.00
2022-11-15T15:13:20.659Z,1.00
2022-11-15T15:15:52.425Z,1.00
2022-11-15T15:18:25.309Z,2.00
2022-11-15T15:21:04.300Z,1.30
2022-11-15T15:23:37.232Z,1.30
2022-11-15T15:26:08.187Z,1.50
2022-11-15T15:28:41.523Z,1.30
2022-11-15T15:31:13.025Z,1.80
2022-11-15T15:33:44.077Z,1.60
2022-11-15T15:36:21.780Z,2.00
2022-11-15T15:38:53.753Z,2.30
2022-11-15T15:41:24.952Z,1.90
2022-11-15T15:43:55.856Z,2.00
2022-11-15T15:46:30.225Z,2.40
2022-11-15T15:49:01.675Z,2.70
2022-11-15T15:51:37.760Z,2.70
2022-11-15T15:54:08.671Z,3.80
2022-11-15T15:56:39.451Z,3.00
2022-11-15T15:59:10.263Z,3.50
2022-11-15T16:01:41.233Z,3.40
2022-11-15T16:04:11.993Z,3.60
2022-11-15T16:06:48.151Z,3.90
2022-11-15T16:09:42.644Z,4.00
2022-11-15T16:12:15.251Z,3.90
2022-11-15T16:14:47.717Z,4.00
2022-11-15T16:17:23.119Z,4.00
2022-11-15T16:19:54.137Z,4.00
2022-11-15T16:22:27.567Z,4.50
2022-11-15T16:24:58.438Z,4.50
2022-11-15T16:27:29.265Z,4.80
2022-11-15T16:30:00.249Z,4.70
2022-11-15T16:32:31.128Z,4.60
2022-11-15T16:35:01.989Z,4.70
2022-11-15T16:37:37.848Z,4.70
2022-11-15T16:40:14.612Z,4.60
2022-11-15T16:42:48.377Z,4.60
2022-11-15T16:45:19.520Z,5.50
2022-11-15T16:47:53.777Z,4.80
2022-11-15T16:50:36.857Z,4.40
2022-11-15T16:53:10.389Z,5.20
2022-11-15T16:55:41.148Z,5.30
2022-11-15T16:58:15.030Z,5.50
2022-11-15T17:00:46.204Z,5.30
2022-11-15T17:03:17.494Z,5.70
2022-11-15T17:05:48.814Z,5.50
2022-11-15T17:08:24.283Z,5.60
2022-11-15T17:10:55.383Z,5.40
2022-11-15T17:13:26.339Z,5.20
2022-11-15T17:16:07.212Z,5.60
2022-11-15T17:18:38.745Z,5.70
2022-11-15T17:21:11.133Z,5.60
2022-11-15T17:23:44.991Z,5.50
2022-11-15T17:26:29.545Z,5.50
2022-11-15T17:29:04.787Z,5.90
2022-11-15T17:31:35.610Z,5.80
2022-11-15T17:34:08.628Z,5.80
2022-11-15T17:36:39.376Z,5.90
2022-11-15T17:39:12.760Z,6.20
2022-11-15T17:41:44.150Z,6.00
2022-11-15T17:44:14.870Z,6.40
2022-11-15T17:46:45.924Z,6.60
2022-11-15T17:49:16.733Z,6.10
2022-11-15T17:51:50.146Z,6.40
2022-11-15T17:54:23.717Z,6.30
2022-11-15T17:56:55.919Z,6.20
2022-11-15T17:59:27.079Z,6.30
2022-11-15T18:01:58.090Z,6.50
2022-11-15T18:04:29.086Z,6.20
2022-11-15T18:06:59.914Z,6.50
2022-11-15T18:09:36.519Z,6.40
2022-11-15T18:12:08.570Z,6.70
2022-11-15T18:14:39.446Z,6.60
2022-11-15T18:17:10.210Z,6.60
2022-11-15T18:19:40.900Z,6.50
2022-11-15T18:22:11.650Z,7.00
2022-11-15T18:24:46.993Z,6.70
2022-11-15T18:27:18.038Z,7.00
2022-11-15T18:29:48.779Z,6.90
2022-11-15T18:32:19.867Z,7.00
2022-11-15T18:34:55.631Z,7.10
2022-11-15T18:37:26.426Z,7.20
2022-11-15T18:40:02.890Z,7.50
2022-11-15T18:42:34.005Z,8.00
2022-11-15T18:45:04.835Z,7.90
2022-11-15T18:47:35.733Z,8.10
2022-11-15T18:50:07.261Z,8.50
2022-11-15T18:52:38.014Z,8.50
2022-11-15T18:55:13.497Z,8.50
2022-11-15T18:57:44.264Z,8.60
2022-11-15T19:00:16.754Z,8.60
2022-11-15T19:02:49.890Z,8.60
2022-11-15T19:05:21.479Z,8.60
2022-11-15T19:07:55.351Z,8.60
2022-11-15T19:10:29.727Z,9.10
2022-11-15T19:13:00.497Z,8.70
2022-11-15T19:15:31.206Z,8.70
2022-11-15T19:18:02.026Z,9.10
2022-11-15T19:20:32.767Z,9.40
2022-11-15T19:23:04.883Z,9.20
2022-11-15T19:25:38.267Z,8.80
2022-11-15T19:28:08.999Z,9.00
2022-11-15T19:30:39.740Z,9.40
2022-11-15T19:33:10.543Z,9.50
2022-11-15T19:35:41.659Z,9.60
2022-11-15T19:38:12.745Z,10.00
2022-11-15T19:40:46.156Z,10.00
2022-11-15T19:43:17.017Z,10.20
2022-11-15T19:46:00.939Z,10.10
2022-11-15T19:48:40.323Z,10.50
2022-11-15T19:51:13.521Z,10.60
2022-11-15T19:53:45.355Z,11.00
2022-11-15T19:56:23.921Z,11.30
2022-11-15T19:59:03.083Z,11.10
2022-11-15T20:01:36.236Z,11.20
2022-11-15T20:04:10.345Z,11.30
2022-11-15T20:06:43.677Z,11.50
2022-11-15T20:09:19.013Z,11.30
2022-11-15T20:11:52.484Z,11.60
2022-11-15T20:14:24.280Z,11.90
2022-11-15T20:16:55.056Z,12.40
2022-11-15T20:19:30.162Z,12.90
2022-11-15T20:22:00.870Z,13.10
2022-11-15T20:24:31.747Z,13.60
2022-11-15T20:27:08.088Z,13.90
2022-11-15T20:29:43.897Z,13.80
2022-11-15T20:32:15.892Z,14.10
2022-11-15T20:34:52.850Z,14.30
2022-11-15T20:37:24.869Z,14.40
2022-11-15T20:39:55.721Z,14.60
2022-11-15T20:42:29.277Z,14.60
2022-11-15T20:45:00.302Z,14.80
2022-11-15T20:47:33.451Z,16.00
2022-11-15T20:50:35.276Z,15.60
2022-11-15T20:53:00.935Z,15.60
2022-11-15T20:55:32.019Z,15.80
2022-11-15T20:58:07.707Z,15.80
2022-11-15T21:00:43.140Z,15.80
2022-11-15T21:03:16.687Z,16.00
2022-11-15T21:05:50.142Z,16.50
2022-11-15T21:08:21.079Z,16.90
2022-11-15T21:11:25.319Z,17.10
2022-11-15T21:13:59.503Z,17.50
2022-11-15T21:16:30.323Z,17.30
2022-11-15T21:19:01.063Z,17.30
2022-11-15T21:21:32.157Z,17.30
2022-11-15T21:24:08.205Z,17.30
2022-11-15T21:26:40.336Z,17.40
2022-11-15T21:29:22.624Z,17.40
2022-11-15T21:31:55.563Z,17.40
2022-11-15T21:34:28.497Z,17.30
2022-11-15T21:37:02.630Z,17.30
2022-11-15T21:39:33.548Z,17.40
2022-11-15T21:42:04.348Z,17.40
2022-11-15T21:44:39.623Z,17.40
2022-11-15T21:47:10.503Z,17.10
2022-11-15T21:49:41.304Z,17.30
2022-11-15T21:52:14.069Z,17.40
2022-11-15T21:54:47.526Z,17.30
2022-11-15T21:57:20.585Z,17.40
2022-11-15T22:00:06.500Z,17.80
2022-11-15T22:02:43.883Z,18.00
2022-11-15T22:05:14.743Z,17.80
2022-11-15T22:07:45.507Z,17.70
2022-11-15T22:10:16.414Z,17.40
2022-11-15T22:12:54.756Z,17.40
2022-11-15T22:15:28.204Z,17.40
2022-11-15T22:18:02.038Z,17.80
2022-11-15T22:20:44.931Z,18.00
2022-11-15T22:23:18.641Z,18.20
2022-11-15T22:25:52.625Z,18.20
2022-11-15T22:28:27.133Z,17.50
2022-11-15T22:31:01.561Z,17.40
2022-11-15T22:33:34.159Z,17.90
2022-11-15T22:36:05.901Z,18.30
2022-11-15T22:38:44.010Z,18.40
2022-11-15T22:41:14.808Z,18.60
2022-11-15T22:43:48.139Z,18.50
2022-11-15T22:46:22.187Z,19.20
2022-11-15T22:48:54.666Z,19.20
2022-11-15T22:51:26.987Z,19.40
2022-11-15T22:53:57.732Z,19.90
2022-11-15T22:56:28.778Z,20.00
2022-11-15T22:59:00.870Z,20.00
2022-11-15T23:01:35.016Z,20.30
2022-11-15T23:04:05.848Z,20.70
2022-11-15T23:06:36.828Z,20.80
2022-11-15T23:09:08.216Z,20.90
2022-11-15T23:11:56.218Z,21.00
2022-11-15T23:14:27.564Z,21.00
2022-11-15T23:17:04.509Z,21.30
2022-11-15T23:19:35.294Z,21.20
2022-11-15T23:22:19.546Z,21.40
2022-11-15T23:24:53.248Z,21.40
2022-11-15T23:27:24.747Z,22.20
2022-11-15T23:30:08.236Z,23.00
2022-11-15T23:32:54.030Z,23.40
2022-11-15T23:35:24.801Z,24.40
2022-11-15T23:37:55.791Z,25.20
2022-11-15T23:40:26.564Z,25.80
2022-11-15T23:42:57.306Z,25.70
2022-11-15T23:45:29.455Z,26.00
2022-11-15T23:48:03.645Z,27.00
2022-11-15T23:50:35.531Z,28.30
2022-11-15T23:53:06.992Z,28.50
2022-11-15T23:55:39.117Z,29.00
2022-11-15T23:58:10.161Z,29.40
